sensor_id;sensor_type;location;lat;lon;timestamp;P1;durP1;ratioP1;P2;durP2;ratioP2
64879;SDS011;51374;45.124;36.712;2022-09-09T00:04:41;0.10;;;0.10;;
64879;SDS011;51374;45.124;36.712;2022-09-09T00:12:57;0.05;;;0.05;;
64879;SDS011;51374;45.124;36.712;2022-09-09T00:15:30;0.30;;;0.30;;
64879;SDS011;51374;45.124;36.712;2022-09-09T00:18:23;0.20;;;0.20;;
64879;SDS011;51374;45.124;36.712;2022-09-09T00:23:29;0.35;;;0.28;;
64879;SDS011;51374;45.124;36.712;2022-09-09T00:25:59;0.25;;;0.25;;
64879;SDS011;51374;45.124;36.712;2022-09-09T00:28:50;1.55;;;0.85;;
64879;SDS011;51374;45.124;36.712;2022-09-09T00:31:28;0.00;;;0.00;;
64879;SDS011;51374;45.124;36.712;2022-09-09T00:34:00;0.10;;;0.10;;
64879;SDS011;51374;45.124;36.712;2022-09-09T00:36:38;1.65;;;1.55;;
64879;SDS011;51374;45.124;36.712;2022-09-09T00:39:05;1.33;;;0.63;;
64879;SDS011;51374;45.124;36.712;2022-09-09T00:44:02;0.03;;;0.03;;
64879;SDS011;51374;45.124;36.712;2022-09-09T00:46:41;0.85;;;0.85;;
64879;SDS011;51374;45.124;36.712;2022-09-09T00:50:05;0.10;;;0.10;;
64879;SDS011;51374;45.124;36.712;2022-09-09T00:58:55;0.00;;;0.00;;
64879;SDS011;51374;45.124;36.712;2022-09-09T01:01:30;0.10;;;0.10;;
64879;SDS011;51374;45.124;36.712;2022-09-09T01:03:56;0.10;;;0.10;;
64879;SDS011;51374;45.124;36.712;2022-09-09T01:06:32;0.10;;;0.10;;
64879;SDS011;51374;45.124;36.712;2022-09-09T01:11:49;0.00;;;0.00;;
64879;SDS011;51374;45.124;36.712;2022-09-09T01:17:20;0.45;;;0.22;;
64879;SDS011;51374;45.124;36.712;2022-09-09T01:23:04;0.10;;;0.10;;
64879;SDS011;51374;45.124;36.712;2022-09-09T01:26:14;0.10;;;0.10;;
64879;SDS011;51374;45.124;36.712;2022-09-09T01:28:48;0.10;;;0.10;;
64879;SDS011;51374;45.124;36.712;2022-09-09T01:31:20;1.85;;;1.75;;
64879;SDS011;51374;45.124;36.712;2022-09-09T01:33:54;0.10;;;0.10;;
64879;SDS011;51374;45.124;36.712;2022-09-09T01:36:26;0.13;;;0.13;;
64879;SDS011;51374;45.124;36.712;2022-09-09T01:38:58;0.32;;;0.20;;
64879;SDS011;51374;45.124;36.712;2022-09-09T01:41:25;3.72;;;1.20;;
64879;SDS011;51374;45.124;36.712;2022-09-09T01:44:03;0.63;;;0.63;;
64879;SDS011;51374;45.124;36.712;2022-09-09T01:46:33;0.13;;;0.13;;
64879;SDS011;51374;45.124;36.712;2022-09-09T01:49:00;0.65;;;0.65;;
64879;SDS011;51374;45.124;36.712;2022-09-09T01:51:29;0.20;;;0.20;;
64879;SDS011;51374;45.124;36.712;2022-09-09T01:53:59;0.10;;;0.10;;
64879;SDS011;51374;45.124;36.712;2022-09-09T01:56:40;1.08;;;0.20;;
64879;SDS011;51374;45.124;36.712;2022-09-09T01:59:37;0.75;;;0.75;;
64879;SDS011;51374;45.124;36.712;2022-09-09T02:02:23;0.10;;;0.10;;
64879;SDS011;51374;45.124;36.712;2022-09-09T02:07:39;0.20;;;0.20;;
64879;SDS011;51374;45.124;36.712;2022-09-09T02:13:04;0.75;;;0.75;;
64879;SDS011;51374;45.124;36.712;2022-09-09T02:15:39;0.47;;;0.47;;
64879;SDS011;51374;45.124;36.712;2022-09-09T02:18:06;0.57;;;0.57;;
64879;SDS011;51374;45.124;36.712;2022-09-09T02:20:36;0.80;;;0.40;;
64879;SDS011;51374;45.124;36.712;2022-09-09T02:23:04;1.35;;;0.10;;
64879;SDS011;51374;45.124;36.712;2022-09-09T02:25:33;0.70;;;0.45;;
64879;SDS011;51374;45.124;36.712;2022-09-09T02:28:10;0.32;;;0.20;;
64879;SDS011;51374;45.124;36.712;2022-09-09T02:30:39;0.38;;;0.38;;
64879;SDS011;51374;45.124;36.712;2022-09-09T02:33:08;0.15;;;0.15;;
64879;SDS011;51374;45.124;36.712;2022-09-09T02:35:43;0.20;;;0.20;;
64879;SDS011;51374;45.124;36.712;2022-09-09T02:38:14;0.93;;;0.52;;
64879;SDS011;51374;45.124;36.712;2022-09-09T02:40:51;1.08;;;0.20;;
64879;SDS011;51374;45.124;36.712;2022-09-09T02:43:17;0.55;;;0.45;;
64879;SDS011;51374;45.124;36.712;2022-09-09T02:45:47;0.80;;;0.80;;
64879;SDS011;51374;45.124;36.712;2022-09-09T02:48:26;0.10;;;0.10;;
64879;SDS011;51374;45.124;36.712;2022-09-09T02:51:08;1.00;;;0.88;;
64879;SDS011;51374;45.124;36.712;2022-09-09T02:56:49;0.68;;;0.63;;
64879;SDS011;51374;45.124;36.712;2022-09-09T02:59:30;0.90;;;0.90;;
64879;SDS011;51374;45.124;36.712;2022-09-09T03:01:56;0.20;;;0.20;;
64879;SDS011;51374;45.124;36.712;2022-09-09T03:04:23;1.33;;;0.82;;
64879;SDS011;51374;45.124;36.712;2022-09-09T03:06:50;0.15;;;0.15;;
64879;SDS011;51374;45.124;36.712;2022-09-09T03:09:19;0.25;;;0.25;;
64879;SDS011;51374;45.124;36.712;2022-09-09T03:11:45;0.25;;;0.25;;
64879;SDS011;51374;45.124;36.712;2022-09-09T03:14:13;0.25;;;0.25;;
64879;SDS011;51374;45.124;36.712;2022-09-09T03:16:39;0.20;;;0.20;;
64879;SDS011;51374;45.124;36.712;2022-09-09T03:19:06;5.63;;;0.90;;
64879;SDS011;51374;45.124;36.712;2022-09-09T03:21:32;3.33;;;1.08;;
64879;SDS011;51374;45.124;36.712;2022-09-09T03:23:58;3.63;;;3.40;;
64879;SDS011;51374;45.124;36.712;2022-09-09T03:26:24;0.52;;;0.52;;
64879;SDS011;51374;45.124;36.712;2022-09-09T03:28:50;1.45;;;1.35;;
64879;SDS011;51374;45.124;36.712;2022-09-09T03:31:19;0.30;;;0.30;;
64879;SDS011;51374;45.124;36.712;2022-09-09T03:33:45;1.60;;;0.75;;
64879;SDS011;51374;45.124;36.712;2022-09-09T03:36:14;0.35;;;0.35;;
64879;SDS011;51374;45.124;36.712;2022-09-09T03:38:41;0.70;;;0.70;;
64879;SDS011;51374;45.124;36.712;2022-09-09T03:41:07;1.15;;;0.75;;
64879;SDS011;51374;45.124;36.712;2022-09-09T03:43:34;0.20;;;0.20;;
64879;SDS011;51374;45.124;36.712;2022-09-09T03:46:00;0.82;;;0.82;;
64879;SDS011;51374;45.124;36.712;2022-09-09T03:48:28;1.05;;;0.50;;
64879;SDS011;51374;45.124;36.712;2022-09-09T03:50:55;1.27;;;1.17;;
64879;SDS011;51374;45.124;36.712;2022-09-09T03:53:27;0.25;;;0.25;;
64879;SDS011;51374;45.124;36.712;2022-09-09T03:55:55;0.43;;;0.30;;
64879;SDS011;51374;45.124;36.712;2022-09-09T03:58:26;0.15;;;0.15;;
64879;SDS011;51374;45.124;36.712;2022-09-09T04:00:58;2.90;;;0.65;;
64879;SDS011;51374;45.124;36.712;2022-09-09T04:03:26;0.50;;;0.50;;
64879;SDS011;51374;45.124;36.712;2022-09-09T04:05:53;4.88;;;1.63;;
64879;SDS011;51374;45.124;36.712;2022-09-09T04:08:22;0.20;;;0.20;;
64879;SDS011;51374;45.124;36.712;2022-09-09T04:10:51;0.77;;;0.77;;
64879;SDS011;51374;45.124;36.712;2022-09-09T04:13:17;0.35;;;0.35;;
64879;SDS011;51374;45.124;36.712;2022-09-09T04:15:52;0.20;;;0.20;;
64879;SDS011;51374;45.124;36.712;2022-09-09T04:18:20;0.52;;;0.52;;
64879;SDS011;51374;45.124;36.712;2022-09-09T04:20:50;0.10;;;0.10;;
64879;SDS011;51374;45.124;36.712;2022-09-09T04:23:20;0.73;;;0.73;;
64879;SDS011;51374;45.124;36.712;2022-09-09T04:25:47;1.20;;;1.10;;
64879;SDS011;51374;45.124;36.712;2022-09-09T04:28:15;0.32;;;0.32;;
64879;SDS011;51374;45.124;36.712;2022-09-09T04:30:42;3.58;;;0.70;;
64879;SDS011;51374;45.124;36.712;2022-09-09T04:33:09;0.60;;;0.60;;
64879;SDS011;51374;45.124;36.712;2022-09-09T04:35:37;0.57;;;0.57;;
64879;SDS011;51374;45.124;36.712;2022-09-09T04:38:04;0.95;;;0.65;;
64879;SDS011;51374;45.124;36.712;2022-09-09T04:40:33;1.77;;;1.52;;
64879;SDS011;51374;45.124;36.712;2022-09-09T04:43:01;20.90;;;0.80;;
64879;SDS011;51374;45.124;36.712;2022-09-09T04:45:31;3.90;;;0.73;;
64879;SDS011;51374;45.124;36.712;2022-09-09T04:47:59;0.50;;;0.50;;
64879;SDS011;51374;45.124;36.712;2022-09-09T04:50:25;3.15;;;2.03;;
64879;SDS011;51374;45.124;36.712;2022-09-09T04:52:59;1.45;;;0.55;;
64879;SDS011;51374;45.124;36.712;2022-09-09T04:55:27;0.65;;;0.47;;
64879;SDS011;51374;45.124;36.712;2022-09-09T04:57:54;0.20;;;0.20;;
64879;SDS011;51374;45.124;36.712;2022-09-09T05:00:20;0.52;;;0.40;;
64879;SDS011;51374;45.124;36.712;2022-09-09T05:02:48;0.40;;;0.30;;
64879;SDS011;51374;45.124;36.712;2022-09-09T05:05:14;1.35;;;0.75;;
64879;SDS011;51374;45.124;36.712;2022-09-09T05:07:40;1.08;;;0.98;;
64879;SDS011;51374;45.124;36.712;2022-09-09T05:10:07;0.57;;;0.57;;
64879;SDS011;51374;45.124;36.712;2022-09-09T05:12:35;0.30;;;0.25;;
64879;SDS011;51374;45.124;36.712;2022-09-09T05:15:01;0.10;;;0.10;;
64879;SDS011;51374;45.124;36.712;2022-09-09T05:17:27;0.20;;;0.20;;
64879;SDS011;51374;45.124;36.712;2022-09-09T05:19:54;0.10;;;0.10;;
64879;SDS011;51374;45.124;36.712;2022-09-09T05:22:20;0.77;;;0.77;;
64879;SDS011;51374;45.124;36.712;2022-09-09T05:24:49;0.30;;;0.30;;
64879;SDS011;51374;45.124;36.712;2022-09-09T05:27:19;1.25;;;0.70;;
64879;SDS011;51374;45.124;36.712;2022-09-09T05:29:46;0.80;;;0.60;;
64879;SDS011;51374;45.124;36.712;2022-09-09T05:32:13;0.10;;;0.10;;
64879;SDS011;51374;45.124;36.712;2022-09-09T05:34:44;0.75;;;0.50;;
64879;SDS011;51374;45.124;36.712;2022-09-09T05:37:11;0.32;;;0.32;;
64879;SDS011;51374;45.124;36.712;2022-09-09T05:39:37;0.35;;;0.35;;
64879;SDS011;51374;45.124;36.712;2022-09-09T05:42:03;0.20;;;0.20;;
64879;SDS011;51374;45.124;36.712;2022-09-09T05:44:32;0.43;;;0.43;;
64879;SDS011;51374;45.124;36.712;2022-09-09T05:46:59;0.40;;;0.40;;
64879;SDS011;51374;45.124;36.712;2022-09-09T05:49:26;0.20;;;0.20;;
64879;SDS011;51374;45.124;36.712;2022-09-09T05:51:52;0.25;;;0.15;;
64879;SDS011;51374;45.124;36.712;2022-09-09T05:54:19;0.22;;;0.20;;
64879;SDS011;51374;45.124;36.712;2022-09-09T05:56:48;0.65;;;0.47;;
64879;SDS011;51374;45.124;36.712;2022-09-09T05:59:16;0.38;;;0.38;;
64879;SDS011;51374;45.124;36.712;2022-09-09T06:01:42;0.13;;;0.13;;
64879;SDS011;51374;45.124;36.712;2022-09-09T06:04:22;0.10;;;0.10;;
64879;SDS011;51374;45.124;36.712;2022-09-09T06:06:50;0.10;;;0.10;;
64879;SDS011;51374;45.124;36.712;2022-09-09T06:09:19;0.30;;;0.30;;
64879;SDS011;51374;45.124;36.712;2022-09-09T06:11:45;0.30;;;0.30;;
64879;SDS011;51374;45.124;36.712;2022-09-09T06:14:13;0.30;;;0.30;;
64879;SDS011;51374;45.124;36.712;2022-09-09T06:16:39;0.20;;;0.20;;
64879;SDS011;51374;45.124;36.712;2022-09-09T06:19:14;0.30;;;0.30;;
64879;SDS011;51374;45.124;36.712;2022-09-09T06:21:41;0.13;;;0.13;;
64879;SDS011;51374;45.124;36.712;2022-09-09T06:24:10;0.10;;;0.10;;
64879;SDS011;51374;45.124;36.712;2022-09-09T06:26:39;0.28;;;0.28;;
64879;SDS011;51374;45.124;36.712;2022-09-09T06:29:08;0.17;;;0.17;;
64879;SDS011;51374;45.124;36.712;2022-09-09T06:31:34;0.88;;;0.88;;
64879;SDS011;51374;45.124;36.712;2022-09-09T06:34:18;0.95;;;0.50;;
64879;SDS011;51374;45.124;36.712;2022-09-09T06:36:48;0.32;;;0.30;;
64879;SDS011;51374;45.124;36.712;2022-09-09T06:39:15;0.13;;;0.13;;
64879;SDS011;51374;45.124;36.712;2022-09-09T06:41:42;1.08;;;0.85;;
64879;SDS011;51374;45.124;36.712;2022-09-09T06:44:19;0.40;;;0.40;;
64879;SDS011;51374;45.124;36.712;2022-09-09T06:46:45;2.90;;;0.30;;
64879;SDS011;51374;45.124;36.712;2022-09-09T06:49:14;0.52;;;0.52;;
64879;SDS011;51374;45.124;36.712;2022-09-09T06:51:40;0.10;;;0.10;;
64879;SDS011;51374;45.124;36.712;2022-09-09T06:54:11;0.43;;;0.40;;
64879;SDS011;51374;45.124;36.712;2022-09-09T06:56:41;0.20;;;0.20;;
64879;SDS011;51374;45.124;36.712;2022-09-09T06:59:22;0.20;;;0.20;;
64879;SDS011;51374;45.124;36.712;2022-09-09T07:01:49;0.43;;;0.40;;
64879;SDS011;51374;45.124;36.712;2022-09-09T07:04:18;0.38;;;0.38;;
64879;SDS011;51374;45.124;36.712;2022-09-09T07:06:44;0.30;;;0.30;;
64879;SDS011;51374;45.124;36.712;2022-09-09T07:09:16;0.20;;;0.20;;
64879;SDS011;51374;45.124;36.712;2022-09-09T07:11:48;5.30;;;0.40;;
64879;SDS011;51374;45.124;36.712;2022-09-09T07:14:19;0.23;;;0.23;;
64879;SDS011;51374;45.124;36.712;2022-09-09T07:16:51;1.10;;;1.00;;
64879;SDS011;51374;45.124;36.712;2022-09-09T07:19:17;3.60;;;2.17;;
64879;SDS011;51374;45.124;36.712;2022-09-09T07:21:47;0.68;;;0.38;;
64879;SDS011;51374;45.124;36.712;2022-09-09T07:24:17;0.30;;;0.30;;
64879;SDS011;51374;45.124;36.712;2022-09-09T07:26:43;0.30;;;0.20;;
64879;SDS011;51374;45.124;36.712;2022-09-09T07:29:11;6.13;;;3.42;;
64879;SDS011;51374;45.124;36.712;2022-09-09T07:31:40;9.35;;;4.63;;
64879;SDS011;51374;45.124;36.712;2022-09-09T07:34:11;6.00;;;2.85;;
64879;SDS011;51374;45.124;36.712;2022-09-09T07:36:38;8.23;;;5.50;;
64879;SDS011;51374;45.124;36.712;2022-09-09T07:39:08;9.40;;;5.15;;
64879;SDS011;51374;45.124;36.712;2022-09-09T07:41:44;11.43;;;5.18;;
64879;SDS011;51374;45.124;36.712;2022-09-09T07:44:22;6.78;;;4.65;;
64879;SDS011;51374;45.124;36.712;2022-09-09T07:47:12;9.25;;;4.70;;
64879;SDS011;51374;45.124;36.712;2022-09-09T07:49:43;12.38;;;3.88;;
64879;SDS011;51374;45.124;36.712;2022-09-09T07:52:08;1.00;;;0.98;;
64879;SDS011;51374;45.124;36.712;2022-09-09T07:54:39;1.30;;;1.20;;
64879;SDS011;51374;45.124;36.712;2022-09-09T07:57:06;1.58;;;0.85;;
64879;SDS011;51374;45.124;36.712;2022-09-09T07:59:34;0.50;;;0.50;;
64879;SDS011;51374;45.124;36.712;2022-09-09T08:02:01;2.22;;;1.27;;
64879;SDS011;51374;45.124;36.712;2022-09-09T08:04:30;1.05;;;0.47;;
64879;SDS011;51374;45.124;36.712;2022-09-09T08:06:57;0.28;;;0.28;;
64879;SDS011;51374;45.124;36.712;2022-09-09T08:09:27;0.30;;;0.30;;
64879;SDS011;51374;45.124;36.712;2022-09-09T08:12:04;2.15;;;0.75;;
64879;SDS011;51374;45.124;36.712;2022-09-09T08:14:32;1.85;;;0.40;;
64879;SDS011;51374;45.124;36.712;2022-09-09T08:16:59;0.73;;;0.73;;
64879;SDS011;51374;45.124;36.712;2022-09-09T08:19:27;0.85;;;0.50;;
64879;SDS011;51374;45.124;36.712;2022-09-09T08:21:55;0.68;;;0.65;;
64879;SDS011;51374;45.124;36.712;2022-09-09T08:24:21;0.30;;;0.30;;
64879;SDS011;51374;45.124;36.712;2022-09-09T08:26:49;0.20;;;0.20;;
64879;SDS011;51374;45.124;36.712;2022-09-09T08:29:17;0.90;;;0.68;;
64879;SDS011;51374;45.124;36.712;2022-09-09T08:31:47;0.20;;;0.20;;
64879;SDS011;51374;45.124;36.712;2022-09-09T08:34:15;0.28;;;0.22;;
64879;SDS011;51374;45.124;36.712;2022-09-09T08:36:47;5.38;;;1.40;;
64879;SDS011;51374;45.124;36.712;2022-09-09T08:39:15;0.20;;;0.20;;
64879;SDS011;51374;45.124;36.712;2022-09-09T08:52:19;0.50;;;0.50;;
64879;SDS011;51374;45.124;36.712;2022-09-09T08:54:51;0.25;;;0.25;;
64879;SDS011;51374;45.124;36.712;2022-09-09T08:57:20;2.17;;;0.65;;
64879;SDS011;51374;45.124;36.712;2022-09-09T08:59:52;0.60;;;0.60;;
64879;SDS011;51374;45.124;36.712;2022-09-09T09:02:23;0.30;;;0.30;;
64879;SDS011;51374;45.124;36.712;2022-09-09T09:05:04;0.30;;;0.30;;
64879;SDS011;51374;45.124;36.712;2022-09-09T09:07:53;0.40;;;0.40;;
64879;SDS011;51374;45.124;36.712;2022-09-09T09:13:00;0.45;;;0.40;;
64879;SDS011;51374;45.124;36.712;2022-09-09T09:15:36;0.20;;;0.20;;
64879;SDS011;51374;45.124;36.712;2022-09-09T09:18:04;0.30;;;0.30;;
64879;SDS011;51374;45.124;36.712;2022-09-09T09:23:22;0.55;;;0.55;;
64879;SDS011;51374;45.124;36.712;2022-09-09T09:25:55;0.32;;;0.32;;
64879;SDS011;51374;45.124;36.712;2022-09-09T09:28:26;0.20;;;0.20;;
64879;SDS011;51374;45.124;36.712;2022-09-09T09:31:04;0.55;;;0.55;;
64879;SDS011;51374;45.124;36.712;2022-09-09T09:36:09;0.20;;;0.20;;
64879;SDS011;51374;45.124;36.712;2022-09-09T09:38:39;0.38;;;0.38;;
64879;SDS011;51374;45.124;36.712;2022-09-09T09:41:05;0.52;;;0.52;;
64879;SDS011;51374;45.124;36.712;2022-09-09T09:43:35;1.65;;;1.13;;
64879;SDS011;51374;45.124;36.712;2022-09-09T09:46:18;0.40;;;0.40;;
64879;SDS011;51374;45.124;36.712;2022-09-09T09:48:56;0.37;;;0.37;;
64879;SDS011;51374;45.124;36.712;2022-09-09T09:51:28;0.40;;;0.40;;
64879;SDS011;51374;45.124;36.712;2022-09-09T09:56:39;0.35;;;0.35;;
64879;SDS011;51374;45.124;36.712;2022-09-09T10:01:46;0.35;;;0.35;;
64879;SDS011;51374;45.124;36.712;2022-09-09T10:04:16;1.20;;;0.68;;
64879;SDS011;51374;45.124;36.712;2022-09-09T10:06:47;0.77;;;0.43;;
64879;SDS011;51374;45.124;36.712;2022-09-09T10:11:57;0.80;;;0.80;;
64879;SDS011;51374;45.124;36.712;2022-09-09T10:19:57;0.30;;;0.30;;
64879;SDS011;51374;45.124;36.712;2022-09-09T10:22:44;1.83;;;0.50;;
64879;SDS011;51374;45.124;36.712;2022-09-09T10:25:53;0.98;;;0.28;;
64879;SDS011;51374;45.124;36.712;2022-09-09T10:34:19;0.30;;;0.30;;
64879;SDS011;51374;45.124;36.712;2022-09-09T10:36:49;0.40;;;0.40;;
64879;SDS011;51374;45.124;36.712;2022-09-09T10:39:31;0.30;;;0.30;;
64879;SDS011;51374;45.124;36.712;2022-09-09T10:42:06;0.52;;;0.40;;
64879;SDS011;51374;45.124;36.712;2022-09-09T10:44:45;2.47;;;0.82;;
64879;SDS011;51374;45.124;36.712;2022-09-09T10:55:35;0.32;;;0.32;;
64879;SDS011;51374;45.124;36.712;2022-09-09T10:58:10;0.30;;;0.30;;
64879;SDS011;51374;45.124;36.712;2022-09-09T11:00:41;0.52;;;0.47;;
64879;SDS011;51374;45.124;36.712;2022-09-09T11:03:24;0.40;;;0.40;;
64879;SDS011;51374;45.124;36.712;2022-09-09T11:06:03;0.28;;;0.28;;
64879;SDS011;51374;45.124;36.712;2022-09-09T11:08:31;0.32;;;0.30;;
64879;SDS011;51374;45.124;36.712;2022-09-09T11:11:14;0.40;;;0.40;;
64879;SDS011;51374;45.124;36.712;2022-09-09T11:14:09;0.47;;;0.47;;
64879;SDS011;51374;45.124;36.712;2022-09-09T11:16:42;0.50;;;0.50;;
64879;SDS011;51374;45.124;36.712;2022-09-09T11:22:05;0.30;;;0.30;;
64879;SDS011;51374;45.124;36.712;2022-09-09T11:32:12;0.77;;;0.57;;
64879;SDS011;51374;45.124;36.712;2022-09-09T11:37:17;0.32;;;0.32;;
64879;SDS011;51374;45.124;36.712;2022-09-09T11:42:41;0.40;;;0.40;;
64879;SDS011;51374;45.124;36.712;2022-09-09T11:45:08;1.85;;;1.23;;
64879;SDS011;51374;45.124;36.712;2022-09-09T11:47:36;0.77;;;0.77;;
64879;SDS011;51374;45.124;36.712;2022-09-09T11:52:38;1.08;;;0.68;;
64879;SDS011;51374;45.124;36.712;2022-09-09T12:00:36;0.47;;;0.47;;
64879;SDS011;51374;45.124;36.712;2022-09-09T12:03:04;4.15;;;0.63;;
64879;SDS011;51374;45.124;36.712;2022-09-09T12:05:38;0.60;;;0.60;;
64879;SDS011;51374;45.124;36.712;2022-09-09T12:08:09;0.38;;;0.30;;
64879;SDS011;51374;45.124;36.712;2022-09-09T12:10:52;0.47;;;0.47;;
64879;SDS011;51374;45.124;36.712;2022-09-09T12:13:20;0.68;;;0.63;;
64879;SDS011;51374;45.124;36.712;2022-09-09T12:15:49;0.50;;;0.50;;
64879;SDS011;51374;45.124;36.712;2022-09-09T12:18:25;0.43;;;0.43;;
64879;SDS011;51374;45.124;36.712;2022-09-09T12:21:07;0.20;;;0.20;;
64879;SDS011;51374;45.124;36.712;2022-09-09T12:23:57;0.63;;;0.43;;
64879;SDS011;51374;45.124;36.712;2022-09-09T12:26:28;0.68;;;0.68;;
64879;SDS011;51374;45.124;36.712;2022-09-09T12:31:50;0.60;;;0.60;;
64879;SDS011;51374;45.124;36.712;2022-09-09T12:37:21;0.73;;;0.40;;
64879;SDS011;51374;45.124;36.712;2022-09-09T12:40:00;0.35;;;0.35;;
64879;SDS011;51374;45.124;36.712;2022-09-09T12:42:29;0.45;;;0.30;;
64879;SDS011;51374;45.124;36.712;2022-09-09T12:44:59;0.47;;;0.30;;
64879;SDS011;51374;45.124;36.712;2022-09-09T12:50:01;1.05;;;0.95;;
64879;SDS011;51374;45.124;36.712;2022-09-09T12:52:29;0.40;;;0.40;;
64879;SDS011;51374;45.124;36.712;2022-09-09T12:54:59;0.85;;;0.47;;
64879;SDS011;51374;45.124;36.712;2022-09-09T12:57:31;0.45;;;0.45;;
64879;SDS011;51374;45.124;36.712;2022-09-09T13:00:04;0.70;;;0.40;;
64879;SDS011;51374;45.124;36.712;2022-09-09T13:02:32;0.15;;;0.15;;
64879;SDS011;51374;45.124;36.712;2022-09-09T13:05:06;0.20;;;0.20;;
64879;SDS011;51374;45.124;36.712;2022-09-09T13:07:40;4.57;;;0.45;;
64879;SDS011;51374;45.124;36.712;2022-09-09T13:10:07;0.43;;;0.32;;
64879;SDS011;51374;45.124;36.712;2022-09-09T13:12:36;0.52;;;0.32;;
64879;SDS011;51374;45.124;36.712;2022-09-09T13:15:03;2.80;;;0.77;;
64879;SDS011;51374;45.124;36.712;2022-09-09T13:17:29;0.25;;;0.25;;
64879;SDS011;51374;45.124;36.712;2022-09-09T13:19:56;0.98;;;0.25;;
64879;SDS011;51374;45.124;36.712;2022-09-09T13:25:04;0.20;;;0.20;;
64879;SDS011;51374;45.124;36.712;2022-09-09T13:27:51;0.50;;;0.50;;
64879;SDS011;51374;45.124;36.712;2022-09-09T13:30:29;0.28;;;0.28;;
64879;SDS011;51374;45.124;36.712;2022-09-09T13:33:04;0.45;;;0.45;;
64879;SDS011;51374;45.124;36.712;2022-09-09T13:38:20;0.43;;;0.40;;
64879;SDS011;51374;45.124;36.712;2022-09-09T13:41:20;0.47;;;0.45;;
64879;SDS011;51374;45.124;36.712;2022-09-09T13:43:46;0.20;;;0.20;;
64879;SDS011;51374;45.124;36.712;2022-09-09T13:46:46;0.20;;;0.20;;
64879;SDS011;51374;45.124;36.712;2022-09-09T13:51:39;0.60;;;0.60;;
64879;SDS011;51374;45.124;36.712;2022-09-09T13:56:37;0.70;;;0.70;;
64879;SDS011;51374;45.124;36.712;2022-09-09T13:59:05;0.30;;;0.30;;
64879;SDS011;51374;45.124;36.712;2022-09-09T14:01:34;0.47;;;0.38;;
64879;SDS011;51374;45.124;36.712;2022-09-09T14:04:00;0.77;;;0.77;;
64879;SDS011;51374;45.124;36.712;2022-09-09T14:06:26;0.43;;;0.43;;
64879;SDS011;51374;45.124;36.712;2022-09-09T14:08:54;0.30;;;0.30;;
64879;SDS011;51374;45.124;36.712;2022-09-09T14:11:20;0.25;;;0.25;;
64879;SDS011;51374;45.124;36.712;2022-09-09T14:13:47;0.50;;;0.50;;
64879;SDS011;51374;45.124;36.712;2022-09-09T14:16:15;0.20;;;0.20;;
64879;SDS011;51374;45.124;36.712;2022-09-09T14:18:45;1.88;;;0.55;;
64879;SDS011;51374;45.124;36.712;2022-09-09T14:21:11;0.30;;;0.30;;
64879;SDS011;51374;45.124;36.712;2022-09-09T14:23:37;0.10;;;0.10;;
64879;SDS011;51374;45.124;36.712;2022-09-09T14:26:04;0.30;;;0.30;;
64879;SDS011;51374;45.124;36.712;2022-09-09T14:28:31;0.30;;;0.30;;
64879;SDS011;51374;45.124;36.712;2022-09-09T14:31:04;0.38;;;0.38;;
64879;SDS011;51374;45.124;36.712;2022-09-09T14:33:30;0.30;;;0.30;;
64879;SDS011;51374;45.124;36.712;2022-09-09T14:35:57;0.30;;;0.30;;
64879;SDS011;51374;45.124;36.712;2022-09-09T14:38:24;1.00;;;0.40;;
64879;SDS011;51374;45.124;36.712;2022-09-09T14:40:53;0.28;;;0.28;;
64879;SDS011;51374;45.124;36.712;2022-09-09T14:43:19;0.43;;;0.40;;
64879;SDS011;51374;45.124;36.712;2022-09-09T14:45:46;1.30;;;0.47;;
64879;SDS011;51374;45.124;36.712;2022-09-09T14:48:13;0.32;;;0.32;;
64879;SDS011;51374;45.124;36.712;2022-09-09T14:50:40;0.10;;;0.10;;
64879;SDS011;51374;45.124;36.712;2022-09-09T14:53:07;0.40;;;0.40;;
64879;SDS011;51374;45.124;36.712;2022-09-09T14:55:34;0.15;;;0.15;;
64879;SDS011;51374;45.124;36.712;2022-09-09T14:58:00;0.30;;;0.30;;
64879;SDS011;51374;45.124;36.712;2022-09-09T15:00:26;0.65;;;0.45;;
64879;SDS011;51374;45.124;36.712;2022-09-09T15:02:55;6.55;;;0.43;;
64879;SDS011;51374;45.124;36.712;2022-09-09T15:05:21;0.32;;;0.28;;
64879;SDS011;51374;45.124;36.712;2022-09-09T15:07:47;0.20;;;0.20;;
64879;SDS011;51374;45.124;36.712;2022-09-09T15:10:14;0.38;;;0.38;;
64879;SDS011;51374;45.124;36.712;2022-09-09T15:12:40;0.57;;;0.52;;
64879;SDS011;51374;45.124;36.712;2022-09-09T15:15:07;0.35;;;0.35;;
64879;SDS011;51374;45.124;36.712;2022-09-09T15:17:33;0.22;;;0.22;;
64879;SDS011;51374;45.124;36.712;2022-09-09T15:20:00;0.30;;;0.30;;
64879;SDS011;51374;45.124;36.712;2022-09-09T15:22:27;0.45;;;0.45;;
64879;SDS011;51374;45.124;36.712;2022-09-09T15:24:53;5.70;;;0.38;;
64879;SDS011;51374;45.124;36.712;2022-09-09T15:27:18;0.32;;;0.32;;
64879;SDS011;51374;45.124;36.712;2022-09-09T15:29:44;1.17;;;0.50;;
64879;SDS011;51374;45.124;36.712;2022-09-09T15:32:10;0.52;;;0.52;;
64879;SDS011;51374;45.124;36.712;2022-09-09T15:34:36;0.40;;;0.40;;
64879;SDS011;51374;45.124;36.712;2022-09-09T15:37:02;0.20;;;0.17;;
64879;SDS011;51374;45.124;36.712;2022-09-09T15:39:28;0.20;;;0.20;;
64879;SDS011;51374;45.124;36.712;2022-09-09T15:41:54;1.50;;;0.65;;
64879;SDS011;51374;45.124;36.712;2022-09-09T15:44:20;0.20;;;0.20;;
64879;SDS011;51374;45.124;36.712;2022-09-09T15:46:49;0.68;;;0.40;;
64879;SDS011;51374;45.124;36.712;2022-09-09T15:49:16;0.20;;;0.20;;
64879;SDS011;51374;45.124;36.712;2022-09-09T15:51:50;1.42;;;0.75;;
64879;SDS011;51374;45.124;36.712;2022-09-09T15:54:18;0.30;;;0.30;;
64879;SDS011;51374;45.124;36.712;2022-09-09T15:56:46;2.72;;;1.35;;
64879;SDS011;51374;45.124;36.712;2022-09-09T15:59:15;0.45;;;0.43;;
64879;SDS011;51374;45.124;36.712;2022-09-09T16:01:41;1.65;;;0.80;;
64879;SDS011;51374;45.124;36.712;2022-09-09T16:04:09;0.43;;;0.43;;
64879;SDS011;51374;45.124;36.712;2022-09-09T16:06:35;1.50;;;0.73;;
64879;SDS011;51374;45.124;36.712;2022-09-09T16:09:02;2.38;;;2.03;;
64879;SDS011;51374;45.124;36.712;2022-09-09T16:11:31;1.23;;;1.13;;
64879;SDS011;51374;45.124;36.712;2022-09-09T16:14:02;0.70;;;0.70;;
64879;SDS011;51374;45.124;36.712;2022-09-09T16:16:29;1.60;;;1.23;;
64879;SDS011;51374;45.124;36.712;2022-09-09T16:18:56;0.85;;;0.68;;
64879;SDS011;51374;45.124;36.712;2022-09-09T16:21:30;7.03;;;0.47;;
64879;SDS011;51374;45.124;36.712;2022-09-09T16:23:59;0.40;;;0.40;;
64879;SDS011;51374;45.124;36.712;2022-09-09T16:26:26;0.20;;;0.20;;
64879;SDS011;51374;45.124;36.712;2022-09-09T16:28:53;0.75;;;0.75;;
64879;SDS011;51374;45.124;36.712;2022-09-09T16:31:21;1.77;;;1.20;;
64879;SDS011;51374;45.124;36.712;2022-09-09T16:33:48;3.83;;;1.45;;
64879;SDS011;51374;45.124;36.712;2022-09-09T16:36:16;1.35;;;1.25;;
64879;SDS011;51374;45.124;36.712;2022-09-09T16:38:47;7.40;;;0.77;;
64879;SDS011;51374;45.124;36.712;2022-09-09T16:41:16;1.38;;;1.27;;
64879;SDS011;51374;45.124;36.712;2022-09-09T16:43:44;2.47;;;1.58;;
64879;SDS011;51374;45.124;36.712;2022-09-09T16:46:13;1.27;;;1.27;;
64879;SDS011;51374;45.124;36.712;2022-09-09T16:48:42;1.65;;;1.25;;
64879;SDS011;51374;45.124;36.712;2022-09-09T16:51:12;0.60;;;0.60;;
64879;SDS011;51374;45.124;36.712;2022-09-09T16:53:49;0.60;;;0.60;;
64879;SDS011;51374;45.124;36.712;2022-09-09T16:56:17;0.63;;;0.63;;
64879;SDS011;51374;45.124;36.712;2022-09-09T16:58:54;0.32;;;0.32;;
64879;SDS011;51374;45.124;36.712;2022-09-09T17:01:22;0.55;;;0.55;;